createdAt,value
2023-01-18T00:01:53.282Z,90.51
2023-01-18T00:04:22.617Z,90.77
2023-01-18T00:07:14.784Z,90.46
2023-01-18T00:09:41.969Z,90.55
2023-01-18T00:12:09.112Z,90.51
2023-01-18T00:14:36.289Z,90.24
2023-01-18T00:17:03.498Z,90.00
2023-01-18T00:19:30.774Z,90.11
2023-01-18T00:21:58.013Z,90.33
2023-01-18T00:24:28.518Z,90.17
2023-01-18T00:26:55.705Z,90.24
2023-01-18T00:29:22.901Z,90.03
2023-01-18T00:31:50.385Z,89.83
2023-01-18T00:34:20.146Z,90.18
2023-01-18T00:36:48.907Z,90.39
2023-01-18T00:39:18.647Z,90.47
2023-01-18T00:42:04.430Z,90.49
2023-01-18T00:44:34.015Z,90.27
2023-01-18T00:47:04.152Z,90.31
2023-01-18T00:49:33.606Z,90.24
2023-01-18T00:52:00.755Z,90.54
2023-01-18T00:54:28.016Z,90.54
2023-01-18T00:56:55.208Z,90.28
2023-01-18T00:59:22.409Z,90.64
2023-01-18T01:01:49.760Z,90.46
2023-01-18T01:04:35.425Z,90.43
2023-01-18T01:07:02.656Z,90.30
2023-01-18T01:09:30.351Z,90.47
2023-01-18T01:12:17.078Z,90.42
2023-01-18T01:15:07.492Z,90.65
2023-01-18T01:17:55.564Z,90.44
2023-01-18T01:20:41.970Z,90.41
2023-01-18T01:23:38.959Z,90.28
2023-01-18T01:26:08.294Z,90.31
2023-01-18T01:28:40.605Z,90.73
2023-01-18T01:31:13.565Z,90.25
2023-01-18T01:33:41.445Z,90.11
2023-01-18T01:36:13.264Z,90.34
2023-01-18T01:38:44.200Z,90.20
2023-01-18T01:41:15.385Z,90.29
2023-01-18T01:43:50.657Z,90.18
2023-01-18T01:46:45.426Z,90.28
2023-01-18T01:49:17.459Z,90.17
2023-01-18T01:51:47.101Z,90.26
2023-01-18T01:54:26.967Z,90.33
2023-01-18T01:57:00.629Z,90.55
2023-01-18T01:59:30.203Z,90.36
2023-01-18T02:01:57.434Z,90.38
2023-01-18T02:04:29.555Z,90.52
2023-01-18T02:06:58.821Z,90.66
2023-01-18T02:09:28.656Z,90.79
2023-01-18T02:11:58.227Z,90.53
2023-01-18T02:14:27.402Z,90.67
2023-01-18T02:17:12.509Z,90.93
2023-01-18T02:20:11.365Z,91.02
2023-01-18T02:23:20.465Z,91.23
2023-01-18T02:25:56.501Z,91.22
2023-01-18T02:28:36.564Z,91.36
2023-01-18T02:31:12.085Z,91.22
2023-01-18T02:34:10.141Z,91.13
2023-01-18T02:36:59.459Z,90.82
2023-01-18T02:39:44.276Z,91.04
2023-01-18T02:42:45.699Z,90.98
2023-01-18T02:45:44.158Z,91.40
2023-01-18T02:48:11.834Z,91.15
2023-01-18T02:50:39.345Z,91.35
2023-01-18T02:53:06.533Z,91.12
2023-01-18T02:55:45.530Z,91.14
2023-01-18T02:58:32.864Z,90.98
2023-01-18T03:01:06.863Z,91.28
2023-01-18T03:03:35.371Z,91.09
2023-01-18T03:06:08.569Z,91.30
2023-01-18T03:08:41.135Z,91.36
2023-01-18T03:11:33.207Z,91.09
2023-01-18T03:14:22.579Z,91.23
2023-01-18T03:16:58.968Z,91.05
2023-01-18T03:20:05.786Z,90.99
2023-01-18T03:23:14.128Z,90.96
2023-01-18T03:25:46.681Z,91.07
2023-01-18T03:28:36.902Z,90.91
2023-01-18T03:31:26.700Z,91.09
2023-01-18T03:34:00.409Z,91.23
2023-01-18T03:36:32.201Z,91.22
2023-01-18T03:39:13.336Z,91.40
2023-01-18T03:41:46.133Z,91.09
2023-01-18T03:44:33.680Z,91.42
2023-01-18T03:47:03.154Z,91.37
2023-01-18T03:49:32.287Z,91.44
2023-01-18T03:52:02.102Z,91.01
2023-01-18T03:54:46.877Z,90.71
2023-01-18T03:57:29.981Z,90.91
2023-01-18T04:00:00.721Z,90.75
2023-01-18T04:02:28.322Z,91.09
2023-01-18T04:04:57.787Z,91.18
2023-01-18T04:07:26.112Z,91.07
2023-01-18T04:09:53.478Z,91.15
2023-01-18T04:12:20.720Z,91.20
2023-01-18T04:14:50.213Z,91.20
2023-01-18T04:17:20.001Z,91.76
2023-01-18T04:19:47.145Z,91.56
2023-01-18T04:22:17.102Z,91.18
2023-01-18T04:24:44.550Z,91.26
2023-01-18T04:27:14.335Z,91.04
2023-01-18T04:29:43.688Z,90.90
2023-01-18T04:32:14.064Z,90.70
2023-01-18T04:34:41.325Z,90.68
2023-01-18T04:37:08.737Z,90.60
2023-01-18T04:39:35.850Z,90.42
2023-01-18T04:42:05.406Z,90.43
2023-01-18T04:44:34.808Z,90.39
2023-01-18T04:47:04.470Z,90.37
2023-01-18T04:49:34.132Z,89.73
2023-01-18T04:52:01.391Z,89.27
2023-01-18T04:54:28.717Z,88.80
2023-01-18T04:56:55.865Z,88.44
2023-01-18T04:59:23.045Z,88.28
2023-01-18T05:01:52.892Z,87.40
2023-01-18T05:04:21.009Z,88.15
2023-01-18T05:06:53.035Z,87.66
2023-01-18T05:09:20.242Z,88.39
2023-01-18T05:11:47.450Z,88.63
2023-01-18T05:14:14.781Z,89.03
2023-01-18T05:16:44.495Z,88.95
2023-01-18T05:19:13.967Z,89.38
2023-01-18T05:21:41.490Z,89.23
2023-01-18T05:24:08.705Z,89.03
2023-01-18T05:26:36.457Z,88.18
2023-01-18T05:29:03.755Z,88.89
2023-01-18T05:31:31.007Z,89.22
2023-01-18T05:33:58.352Z,88.19
2023-01-18T05:36:27.942Z,88.84
2023-01-18T05:38:58.021Z,88.32
2023-01-18T05:41:25.229Z,86.86
2023-01-18T05:43:54.434Z,87.01
2023-01-18T05:46:21.592Z,87.84
2023-01-18T05:48:50.922Z,87.13
2023-01-18T05:51:20.237Z,86.77
2023-01-18T05:53:47.430Z,86.24
2023-01-18T05:56:17.026Z,85.77
2023-01-18T05:58:46.579Z,86.08
2023-01-18T06:01:16.204Z,87.67
2023-01-18T06:03:43.531Z,86.20
2023-01-18T06:06:10.829Z,87.89
2023-01-18T06:08:40.251Z,87.96
2023-01-18T06:11:07.860Z,87.05
2023-01-18T06:13:35.184Z,87.97
2023-01-18T06:16:05.164Z,87.88
2023-01-18T06:18:33.417Z,86.49
2023-01-18T06:21:03.220Z,88.33
2023-01-18T06:23:32.719Z,88.12
2023-01-18T06:25:59.989Z,87.91
2023-01-18T06:28:30.819Z,88.14
2023-01-18T06:30:58.517Z,88.45
2023-01-18T06:33:25.790Z,88.22
2023-01-18T06:35:53.019Z,88.27
2023-01-18T06:38:23.246Z,88.50
2023-01-18T06:40:52.737Z,87.84
2023-01-18T06:43:19.963Z,88.58
2023-01-18T06:45:56.900Z,86.82
2023-01-18T06:48:25.205Z,86.77
2023-01-18T06:50:53.192Z,87.36
2023-01-18T06:53:22.867Z,86.74
2023-01-18T06:56:01.890Z,87.16
2023-01-18T06:58:35.764Z,87.50
2023-01-18T07:01:03.921Z,87.46
2023-01-18T07:03:31.500Z,87.28
2023-01-18T07:06:01.357Z,87.59
2023-01-18T07:08:31.639Z,87.39
2023-01-18T07:10:59.621Z,87.53
2023-01-18T07:13:27.107Z,87.36
2023-01-18T07:16:00.991Z,87.49
2023-01-18T07:18:30.553Z,87.64
2023-01-18T07:20:58.508Z,87.39
2023-01-18T07:23:26.885Z,87.28
2023-01-18T07:26:12.136Z,87.55
2023-01-18T07:28:39.463Z,87.15
2023-01-18T07:31:08.217Z,87.84
2023-01-18T07:33:38.410Z,87.41
2023-01-18T07:36:07.398Z,87.53
2023-01-18T07:38:34.604Z,87.21
2023-01-18T07:41:04.040Z,86.70
2023-01-18T07:43:33.863Z,86.73
2023-01-18T07:46:04.080Z,86.90
2023-01-18T07:48:34.213Z,87.08
2023-01-18T07:51:07.260Z,87.33
2023-01-18T07:53:36.509Z,87.22
2023-01-18T07:56:09.176Z,86.86
2023-01-18T07:58:36.432Z,86.56
2023-01-18T08:01:07.339Z,86.46
2023-01-18T08:03:36.433Z,86.81
2023-01-18T08:06:07.303Z,86.97
2023-01-18T08:08:36.120Z,86.91
2023-01-18T08:11:05.473Z,86.88
2023-01-18T08:13:33.244Z,87.32
2023-01-18T08:16:05.336Z,87.86
2023-01-18T08:18:32.893Z,88.25
2023-01-18T08:21:00.210Z,88.01
2023-01-18T08:23:27.507Z,87.92
2023-01-18T08:25:55.492Z,87.90
2023-01-18T08:28:23.103Z,87.98
2023-01-18T08:30:50.359Z,88.11
2023-01-18T08:33:20.133Z,88.72
2023-01-18T08:35:48.020Z,88.31
2023-01-18T08:38:16.543Z,88.39
2023-01-18T08:40:43.731Z,88.32
2023-01-18T08:43:13.524Z,88.21
2023-01-18T08:45:40.763Z,88.04
2023-01-18T08:48:11.825Z,87.94
2023-01-18T08:50:43.095Z,88.26
2023-01-18T08:53:14.885Z,88.02
2023-01-18T08:55:42.031Z,87.93
2023-01-18T08:58:09.240Z,87.54
2023-01-18T09:00:38.526Z,87.63
2023-01-18T09:03:06.842Z,87.60
2023-01-18T09:05:36.745Z,87.27
2023-01-18T09:08:06.423Z,86.81
2023-01-18T09:10:37.541Z,86.95
2023-01-18T09:13:05.944Z,86.41
2023-01-18T09:15:33.201Z,86.34
2023-01-18T09:18:05.886Z,86.19
2023-01-18T09:20:36.092Z,85.84
2023-01-18T09:23:07.126Z,85.45
2023-01-18T09:25:37.822Z,85.44
2023-01-18T09:28:05.593Z,85.96
2023-01-18T09:30:35.997Z,84.47
2023-01-18T09:33:03.333Z,84.47
2023-01-18T09:35:30.655Z,84.39
2023-01-18T09:37:57.957Z,84.56
2023-01-18T09:40:38.114Z,84.54
2023-01-18T09:43:16.120Z,84.01
2023-01-18T09:45:46.881Z,84.40
2023-01-18T09:48:28.093Z,83.88
2023-01-18T09:50:59.161Z,83.65
2023-01-18T09:53:29.105Z,83.27
2023-01-18T09:56:22.052Z,83.29
2023-01-18T09:59:10.380Z,83.83
2023-01-18T10:01:38.736Z,83.93
2023-01-18T10:04:08.840Z,83.48
2023-01-18T10:06:54.005Z,83.28
2023-01-18T10:09:27.198Z,83.09
2023-01-18T10:11:59.755Z,82.92
2023-01-18T10:14:53.110Z,82.20
2023-01-18T10:17:24.133Z,82.08
2023-01-18T10:19:51.921Z,81.44
2023-01-18T10:22:25.215Z,81.77
2023-01-18T10:25:22.977Z,81.57
2023-01-18T10:28:27.719Z,80.68
2023-01-18T10:31:15.492Z,80.37
2023-01-18T10:33:44.612Z,80.22
2023-01-18T10:36:13.975Z,80.67
2023-01-18T10:38:45.460Z,81.07
2023-01-18T10:41:20.173Z,80.71
2023-01-18T10:43:47.626Z,81.05
2023-01-18T10:46:19.818Z,81.32
2023-01-18T10:49:20.181Z,81.17
2023-01-18T10:52:12.459Z,80.70
2023-01-18T10:54:40.533Z,80.79
2023-01-18T10:57:20.463Z,80.83
2023-01-18T10:59:52.740Z,80.85
2023-01-18T11:02:27.450Z,81.14
2023-01-18T11:04:59.375Z,80.26
2023-01-18T11:07:29.736Z,80.63
2023-01-18T11:09:59.619Z,80.44
2023-01-18T11:12:56.302Z,80.65
2023-01-18T11:15:26.945Z,80.45
2023-01-18T11:17:58.039Z,79.65
2023-01-18T11:20:36.817Z,79.83
2023-01-18T11:23:17.764Z,79.18
2023-01-18T11:25:52.607Z,79.00
2023-01-18T11:28:21.575Z,78.81
2023-01-18T11:31:21.124Z,78.48
2023-01-18T11:34:01.683Z,79.09
2023-01-18T11:36:37.707Z,79.57
2023-01-18T11:39:29.265Z,78.92
2023-01-18T11:42:13.863Z,78.72
2023-01-18T11:44:50.773Z,79.66
2023-01-18T11:47:29.003Z,79.25
2023-01-18T11:50:10.342Z,78.80
2023-01-18T11:52:48.958Z,79.04
2023-01-18T11:55:32.505Z,79.03
2023-01-18T11:58:05.248Z,78.55
2023-01-18T12:00:45.756Z,78.34
2023-01-18T12:03:40.199Z,78.25
2023-01-18T12:06:24.150Z,78.98
2023-01-18T12:09:03.676Z,78.99
2023-01-18T12:11:48.236Z,78.94
2023-01-18T12:14:34.129Z,77.79
2023-01-18T12:17:14.066Z,78.39
2023-01-18T12:19:58.647Z,78.49
2023-01-18T12:22:31.955Z,77.26
2023-01-18T12:25:04.560Z,77.20
2023-01-18T12:27:40.422Z,77.37
2023-01-18T12:30:15.865Z,75.33
2023-01-18T12:33:06.626Z,75.27
2023-01-18T12:36:07.413Z,75.16
2023-01-18T12:38:36.176Z,74.35
2023-01-18T12:41:21.603Z,74.31
2023-01-18T12:44:00.962Z,73.32
2023-01-18T12:47:03.079Z,73.58
2023-01-18T12:49:36.529Z,72.53
2023-01-18T12:52:18.430Z,72.83
2023-01-18T12:54:52.277Z,73.50
2023-01-18T12:57:21.359Z,73.31
2023-01-18T12:59:57.586Z,73.60
2023-01-18T13:02:36.935Z,73.38
2023-01-18T13:05:35.501Z,73.41
2023-01-18T13:08:16.834Z,72.89
2023-01-18T13:10:47.664Z,73.42
2023-01-18T13:13:19.945Z,73.19
2023-01-18T13:15:47.114Z,73.40
2023-01-18T13:18:42.512Z,73.67
2023-01-18T13:21:31.580Z,74.36
2023-01-18T13:24:11.462Z,75.04
2023-01-18T13:26:38.908Z,74.50
2023-01-18T13:29:23.027Z,74.52
2023-01-18T13:31:50.895Z,74.87
2023-01-18T13:34:28.821Z,75.09
2023-01-18T13:37:13.517Z,75.45
2023-01-18T13:39:47.833Z,75.70
2023-01-18T13:42:20.800Z,75.62
2023-01-18T13:44:50.152Z,75.14
2023-01-18T13:47:35.685Z,76.20
2023-01-18T13:50:03.119Z,75.23
2023-01-18T13:52:31.086Z,76.02
2023-01-18T13:55:04.051Z,76.18
2023-01-18T13:57:33.540Z,76.19
2023-01-18T14:00:02.388Z,75.20
2023-01-18T14:02:42.429Z,75.56
2023-01-18T14:05:43.838Z,74.11
2023-01-18T14:08:22.231Z,73.35
2023-01-18T14:10:53.059Z,74.19
2023-01-18T14:13:46.088Z,74.50
2023-01-18T14:16:19.349Z,73.57
2023-01-18T14:18:55.405Z,74.70
2023-01-18T14:21:54.252Z,74.06
2023-01-18T14:24:43.341Z,73.86
2023-01-18T14:27:20.619Z,74.22
2023-01-18T14:30:05.064Z,74.25
2023-01-18T14:32:38.981Z,74.61
2023-01-18T14:35:25.422Z,74.47
2023-01-18T14:38:16.775Z,74.16
2023-01-18T14:40:49.125Z,74.44
2023-01-18T14:43:32.201Z,73.76
2023-01-18T14:46:09.930Z,74.74
2023-01-18T14:48:52.116Z,74.02
2023-01-18T14:51:23.207Z,74.59
2023-01-18T14:53:54.273Z,74.08
2023-01-18T14:56:30.318Z,73.87
2023-01-18T14:59:27.498Z,74.75
2023-01-18T15:02:00.043Z,74.01
2023-01-18T15:04:33.007Z,74.11
2023-01-18T15:07:02.120Z,74.02
2023-01-18T15:09:32.732Z,74.92
2023-01-18T15:12:05.983Z,75.00
2023-01-18T15:14:37.809Z,74.99
2023-01-18T15:17:21.337Z,74.84
2023-01-18T15:19:53.062Z,74.97
2023-01-18T15:22:29.703Z,75.28
2023-01-18T15:24:58.763Z,76.38
2023-01-18T15:27:29.109Z,76.67
2023-01-18T15:30:00.358Z,76.55
2023-01-18T15:32:31.449Z,76.96
2023-01-18T15:35:00.206Z,77.03
2023-01-18T15:37:32.589Z,77.00
2023-01-18T15:40:21.333Z,77.31
2023-01-18T15:42:58.002Z,77.21
2023-01-18T15:45:38.732Z,77.44
2023-01-18T15:48:18.674Z,77.23
2023-01-18T15:50:53.794Z,77.24
2023-01-18T15:53:30.318Z,77.45
2023-01-18T15:56:03.451Z,76.91
2023-01-18T15:58:46.069Z,77.54
2023-01-18T16:01:13.378Z,77.75
2023-01-18T16:03:45.549Z,78.14
2023-01-18T16:06:16.874Z,78.75
2023-01-18T16:08:56.889Z,79.11
2023-01-18T16:11:31.386Z,79.55
2023-01-18T16:14:07.682Z,79.89
2023-01-18T16:16:40.807Z,79.90
2023-01-18T16:19:17.272Z,80.05
2023-01-18T16:21:50.146Z,80.07
2023-01-18T16:24:22.861Z,80.14
2023-01-18T16:26:50.296Z,79.79
2023-01-18T16:29:17.865Z,80.18
2023-01-18T16:31:45.594Z,80.45
2023-01-18T16:34:28.023Z,80.20
2023-01-18T16:36:57.919Z,80.40
2023-01-18T16:39:25.250Z,80.92
2023-01-18T16:41:59.878Z,81.36
2023-01-18T16:44:29.723Z,81.78
2023-01-18T16:46:57.165Z,82.18
2023-01-18T16:49:27.118Z,82.70
2023-01-18T16:51:54.733Z,83.07
2023-01-18T16:54:22.211Z,83.45
2023-01-18T16:56:50.092Z,83.69
2023-01-18T16:59:21.834Z,83.71
2023-01-18T17:01:49.884Z,84.08
2023-01-18T17:04:17.875Z,84.48
2023-01-18T17:06:47.517Z,84.70
2023-01-18T17:09:24.413Z,84.63
2023-01-18T17:11:52.450Z,84.63
2023-01-18T17:14:22.152Z,84.80
2023-01-18T17:16:49.672Z,84.89
2023-01-18T17:19:19.594Z,84.92
2023-01-18T17:21:48.451Z,85.88
2023-01-18T17:24:17.049Z,85.61
2023-01-18T17:26:46.449Z,85.67
2023-01-18T17:29:18.068Z,85.70
2023-01-18T17:31:52.180Z,85.71
2023-01-18T17:34:28.204Z,86.17
2023-01-18T17:37:03.219Z,86.16
2023-01-18T17:39:43.965Z,85.50
2023-01-18T17:42:14.298Z,83.76
2023-01-18T17:44:43.726Z,83.26
2023-01-18T17:47:13.494Z,82.68
2023-01-18T17:49:42.990Z,83.07
2023-01-18T17:52:10.180Z,82.74
2023-01-18T17:54:37.395Z,82.90
2023-01-18T17:57:06.923Z,83.45
2023-01-18T17:59:34.191Z,83.53
2023-01-18T18:02:01.404Z,84.06
2023-01-18T18:04:33.005Z,84.23
2023-01-18T18:07:00.326Z,84.12
2023-01-18T18:09:29.914Z,83.50
2023-01-18T18:11:57.486Z,83.80
2023-01-18T18:17:11.408Z,84.73
2023-01-18T18:19:38.626Z,85.71
2023-01-18T18:22:07.946Z,86.17
2023-01-18T18:24:35.067Z,86.80
2023-01-18T18:27:04.497Z,87.16
2023-01-18T18:29:33.910Z,87.50
2023-01-18T18:32:01.102Z,88.63
2023-01-18T18:34:30.186Z,89.65
2023-01-18T18:36:57.441Z,90.20
2023-01-18T18:44:59.067Z,91.06
2023-01-18T18:47:26.374Z,91.97
2023-01-18T18:49:53.533Z,91.43
2023-01-18T18:52:23.219Z,91.31
2023-01-18T18:54:50.401Z,91.13
2023-01-18T18:57:19.879Z,91.14
2023-01-18T18:59:47.020Z,91.04
2023-01-18T19:02:16.220Z,91.84
2023-01-18T19:04:43.499Z,91.49
2023-01-18T19:07:10.705Z,91.64
2023-01-18T19:09:38.133Z,91.74
2023-01-18T19:12:05.510Z,91.36
2023-01-18T19:14:32.709Z,91.57
2023-01-18T19:17:00.234Z,91.20
2023-01-18T19:19:27.370Z,91.45
2023-01-18T19:21:54.628Z,91.31
2023-01-18T19:24:24.947Z,90.73
2023-01-18T19:26:52.222Z,90.59
2023-01-18T19:29:19.742Z,91.11
2023-01-18T19:31:47.084Z,90.88
2023-01-18T19:34:16.540Z,90.53
2023-01-18T19:36:46.054Z,90.91
2023-01-18T19:39:21.849Z,90.45
2023-01-18T19:41:49.898Z,91.04
2023-01-18T19:44:17.145Z,90.78
2023-01-18T19:46:44.378Z,90.21
2023-01-18T19:49:11.529Z,90.28
2023-01-18T19:51:41.291Z,90.36
2023-01-18T19:54:11.048Z,90.68
2023-01-18T19:56:38.512Z,90.69
2023-01-18T19:59:05.815Z,90.99
2023-01-18T20:01:37.270Z,90.65
2023-01-18T20:04:08.250Z,91.08
2023-01-18T20:06:38.448Z,91.20
2023-01-18T20:09:17.849Z,90.92
2023-01-18T20:11:46.445Z,90.82
2023-01-18T20:14:13.729Z,90.92
2023-01-18T20:16:45.990Z,91.84
2023-01-18T20:19:17.738Z,92.07
2023-01-18T20:21:45.359Z,92.54
2023-01-18T20:24:12.571Z,92.67
2023-01-18T20:26:42.385Z,91.88
2023-01-18T20:29:10.118Z,91.45
2023-01-18T20:31:39.232Z,92.34
2023-01-18T20:34:07.823Z,91.94
2023-01-18T20:36:36.176Z,92.49
2023-01-18T20:39:09.209Z,91.55
2023-01-18T20:41:36.430Z,91.42
2023-01-18T20:44:05.812Z,92.10
2023-01-18T20:46:33.025Z,91.94
2023-01-18T20:49:03.598Z,91.55
2023-01-18T20:51:31.517Z,91.60
2023-01-18T20:53:59.037Z,92.26
2023-01-18T20:56:29.577Z,91.89
2023-01-18T20:58:59.538Z,91.59
2023-01-18T21:01:32.285Z,91.69
2023-01-18T21:04:01.631Z,91.98
2023-01-18T21:06:31.621Z,92.19
2023-01-18T21:09:50.196Z,92.08
2023-01-18T21:12:20.607Z,92.69
2023-01-18T21:14:47.764Z,93.03
2023-01-18T21:17:15.071Z,92.49
2023-01-18T21:19:47.431Z,92.96
2023-01-18T21:22:15.177Z,93.77
2023-01-18T21:24:42.406Z,94.28
2023-01-18T21:27:09.547Z,94.17
2023-01-18T21:29:37.018Z,93.92
2023-01-18T21:32:31.918Z,93.44
2023-01-18T21:34:59.075Z,93.35
2023-01-18T21:37:27.418Z,93.70
2023-01-18T21:39:54.662Z,93.43
2023-01-18T21:42:40.472Z,94.17
2023-01-18T21:45:31.123Z,94.01
2023-01-18T21:47:59.899Z,93.98
2023-01-18T21:51:10.632Z,93.54
2023-01-18T21:53:56.607Z,93.45
2023-01-18T21:56:25.998Z,93.81
2023-01-18T21:58:53.164Z,93.84
2023-01-18T22:01:34.383Z,93.43
2023-01-18T22:04:27.261Z,93.11
2023-01-18T22:07:00.354Z,92.91
2023-01-18T22:09:31.218Z,93.51
2023-01-18T22:11:58.578Z,94.31
2023-01-18T22:14:26.658Z,92.61
2023-01-18T22:16:53.987Z,93.16
2023-01-18T22:19:21.545Z,93.52
2023-01-18T22:21:51.638Z,92.94
2023-01-18T22:24:19.048Z,93.48
2023-01-18T22:26:46.297Z,93.46
2023-01-18T22:29:15.930Z,94.56
2023-01-18T22:31:43.179Z,94.58
2023-01-18T22:34:19.288Z,94.35
2023-01-18T22:36:46.495Z,93.88
2023-01-18T22:39:14.462Z,94.48
2023-01-18T22:41:42.228Z,94.52
2023-01-18T22:44:10.921Z,95.14
2023-01-18T22:46:40.245Z,94.73
2023-01-18T22:49:07.440Z,94.24
2023-01-18T22:51:36.969Z,94.29
2023-01-18T22:54:04.232Z,93.90
2023-01-18T22:56:31.588Z,94.35
2023-01-18T22:58:59.986Z,94.69
2023-01-18T23:01:32.204Z,94.66
2023-01-18T23:04:02.729Z,94.85
2023-01-18T23:06:42.293Z,94.43
2023-01-18T23:09:13.183Z,94.75
2023-01-18T23:11:42.704Z,94.77
2023-01-18T23:14:28.411Z,94.86
2023-01-18T23:17:13.975Z,94.51
2023-01-18T23:19:43.548Z,94.18
2023-01-18T23:22:12.843Z,94.16
2023-01-18T23:24:40.123Z,94.16
2023-01-18T23:27:10.203Z,94.23
2023-01-18T23:29:39.923Z,94.80
2023-01-18T23:32:09.462Z,94.95
2023-01-18T23:34:36.741Z,95.09
2023-01-18T23:37:03.962Z,94.49
2023-01-18T23:39:49.641Z,94.09
2023-01-18T23:42:35.017Z,94.08
2023-01-18T23:45:23.201Z,93.95
2023-01-18T23:48:11.671Z,93.35
2023-01-18T23:50:57.250Z,93.51
2023-01-18T23:53:43.024Z,94.40
2023-01-18T23:56:10.255Z,93.90
2023-01-18T23:58:40.605Z,93.75
